<?xml version="1.0" encoding="UTF-8" standalone="no" ?>
<gpx xmlns="http://www.topografix.com/GPX/1/1" xmlns:xsi="http://www.w3.org/2001/XMLSchema-instance" xsi:schemaLocation="http://www.topografix.com/GPX/1/1 http://www.topografix.com/GPX/1/1/gpx.xsd" version="1.1" creator="VisuGPX - https://www.visugpx.com">
  <metadata>
    <name>Vallée du Goul par le Rocher de la Mule</name>
  </metadata>
  <wpt lat="44.8977" lon="2.67147">
    <ele>876</ele>
    <name><![CDATA[Point d'intérêt ]]></name>
    <desc><![CDATA[Rocher de la mule, vu sur les Monts du Cantal avec table d'orientation.]]></desc>
    <type><![CDATA[vue]]></type>
  </wpt>
  <trk>
    <name><![CDATA[Vallée du Goul par le Rocher de la Mule]]></name>
    <extensions>
      <line xmlns="http://www.topografix.com/GPX/gpx_style/0/2">
        <color>0000FF</color>
        <width>4</width>
      </line>
    </extensions>
    <trkseg>
      <trkpt lat="44.9509" lon="2.68459">
        <ele>1090</ele>
        <time>2023-05-03T14:46:37+02:00</time>
      </trkpt>
      <trkpt lat="44.95102" lon="2.68424">
        <ele>1092</ele>
        <time>2023-05-03T14:46:44+02:00</time>
      </trkpt>
      <trkpt lat="44.95107" lon="2.68389">
        <ele>1092</ele>
        <time>2023-05-03T14:46:51+02:00</time>
      </trkpt>
      <trkpt lat="44.95129" lon="2.68381">
        <ele>1092</ele>
        <time>2023-05-03T14:48:41+02:00</time>
      </trkpt>
      <trkpt lat="44.95158" lon="2.68364">
        <ele>1092</ele>
        <time>2023-05-03T14:48:49+02:00</time>
      </trkpt>
      <trkpt lat="44.95178" lon="2.68347">
        <ele>1092</ele>
        <time>2023-05-03T14:48:58+02:00</time>
      </trkpt>
      <trkpt lat="44.95198" lon="2.68323">
        <ele>1092</ele>
        <time>2023-05-03T14:49:10+02:00</time>
      </trkpt>
      <trkpt lat="44.95223" lon="2.68317">
        <ele>1096</ele>
        <time>2023-05-03T14:49:20+02:00</time>
      </trkpt>
      <trkpt lat="44.95248" lon="2.68325">
        <ele>1096</ele>
        <time>2023-05-03T14:49:28+02:00</time>
      </trkpt>
      <trkpt lat="44.95273" lon="2.68318">
        <ele>1096</ele>
        <time>2023-05-03T14:49:39+02:00</time>
      </trkpt>
      <trkpt lat="44.95272" lon="2.6828">
        <ele>1096</ele>
        <time>2023-05-03T14:49:55+02:00</time>
      </trkpt>
      <trkpt lat="44.95266" lon="2.68233">
        <ele>1096</ele>
        <time>2023-05-03T14:50:05+02:00</time>
      </trkpt>
      <trkpt lat="44.95258" lon="2.68196">
        <ele>1096</ele>
        <time>2023-05-03T14:50:11+02:00</time>
      </trkpt>
      <trkpt lat="44.95244" lon="2.68165">
        <ele>1096</ele>
        <time>2023-05-03T14:50:20+02:00</time>
      </trkpt>
      <trkpt lat="44.95223" lon="2.68135">
        <ele>1096</ele>
        <time>2023-05-03T14:50:30+02:00</time>
      </trkpt>
      <trkpt lat="44.95208" lon="2.68112">
        <ele>1096</ele>
        <time>2023-05-03T14:50:36+02:00</time>
      </trkpt>
      <trkpt lat="44.95189" lon="2.68083">
        <ele>1096</ele>
        <time>2023-05-03T14:50:47+02:00</time>
      </trkpt>
      <trkpt lat="44.9517" lon="2.68048">
        <ele>1096</ele>
        <time>2023-05-03T14:50:57+02:00</time>
      </trkpt>
      <trkpt lat="44.95152" lon="2.68026">
        <ele>1096</ele>
        <time>2023-05-03T14:51:05+02:00</time>
      </trkpt>
      <trkpt lat="44.95134" lon="2.68002">
        <ele>1096</ele>
        <time>2023-05-03T14:51:15+02:00</time>
      </trkpt>
      <trkpt lat="44.95112" lon="2.67979">
        <ele>1096</ele>
        <time>2023-05-03T14:51:27+02:00</time>
      </trkpt>
      <trkpt lat="44.95088" lon="2.67954">
        <ele>1096</ele>
        <time>2023-05-03T14:51:38+02:00</time>
      </trkpt>
      <trkpt lat="44.95067" lon="2.67938">
        <ele>1093</ele>
        <time>2023-05-03T14:51:49+02:00</time>
      </trkpt>
      <trkpt lat="44.95039" lon="2.67932">
        <ele>1093</ele>
        <time>2023-05-03T14:51:59+02:00</time>
      </trkpt>
      <trkpt lat="44.95015" lon="2.67925">
        <ele>1093</ele>
        <time>2023-05-03T14:52:08+02:00</time>
      </trkpt>
      <trkpt lat="44.94993" lon="2.67922">
        <ele>1093</ele>
        <time>2023-05-03T14:52:16+02:00</time>
      </trkpt>
      <trkpt lat="44.94968" lon="2.67923">
        <ele>1093</ele>
        <time>2023-05-03T14:52:23+02:00</time>
      </trkpt>
      <trkpt lat="44.94938" lon="2.67927">
        <ele>1093</ele>
        <time>2023-05-03T14:52:32+02:00</time>
      </trkpt>
      <trkpt lat="44.94908" lon="2.67928">
        <ele>1093</ele>
        <time>2023-05-03T14:52:42+02:00</time>
      </trkpt>
      <trkpt lat="44.94884" lon="2.67926">
        <ele>1093</ele>
        <time>2023-05-03T14:52:53+02:00</time>
      </trkpt>
      <trkpt lat="44.94861" lon="2.67924">
        <ele>1093</ele>
        <time>2023-05-03T14:53:02+02:00</time>
      </trkpt>
      <trkpt lat="44.94836" lon="2.6792">
        <ele>1093</ele>
        <time>2023-05-03T14:53:11+02:00</time>
      </trkpt>
      <trkpt lat="44.94808" lon="2.67914">
        <ele>1093</ele>
        <time>2023-05-03T14:53:21+02:00</time>
      </trkpt>
      <trkpt lat="44.94784" lon="2.67907">
        <ele>1093</ele>
        <time>2023-05-03T14:53:32+02:00</time>
      </trkpt>
      <trkpt lat="44.9476" lon="2.67898">
        <ele>1093</ele>
        <time>2023-05-03T14:53:41+02:00</time>
      </trkpt>
      <trkpt lat="44.94733" lon="2.67891">
        <ele>1093</ele>
        <time>2023-05-03T14:53:54+02:00</time>
      </trkpt>
      <trkpt lat="44.94706" lon="2.67884">
        <ele>1093</ele>
        <time>2023-05-03T14:54:03+02:00</time>
      </trkpt>
      <trkpt lat="44.94679" lon="2.67876">
        <ele>1093</ele>
        <time>2023-05-03T14:54:13+02:00</time>
      </trkpt>
      <trkpt lat="44.94654" lon="2.67871">
        <ele>1093</ele>
        <time>2023-05-03T14:54:23+02:00</time>
      </trkpt>
      <trkpt lat="44.94629" lon="2.67865">
        <ele>1093</ele>
        <time>2023-05-03T14:54:33+02:00</time>
      </trkpt>
      <trkpt lat="44.94605" lon="2.6786">
        <ele>1093</ele>
        <time>2023-05-03T14:54:44+02:00</time>
      </trkpt>
      <trkpt lat="44.94581" lon="2.67857">
        <ele>1084</ele>
        <time>2023-05-03T14:54:54+02:00</time>
      </trkpt>
      <trkpt lat="44.94559" lon="2.67854">
        <ele>1084</ele>
        <time>2023-05-03T14:55:04+02:00</time>
      </trkpt>
      <trkpt lat="44.94532" lon="2.67852">
        <ele>1083</ele>
        <time>2023-05-03T14:55:11+02:00</time>
      </trkpt>
      <trkpt lat="44.94508" lon="2.67853">
        <ele>1077</ele>
        <time>2023-05-03T14:55:18+02:00</time>
      </trkpt>
      <trkpt lat="44.94489" lon="2.67881">
        <ele>1093</ele>
        <time>2023-05-03T14:55:28+02:00</time>
      </trkpt>
      <trkpt lat="44.94471" lon="2.67909">
        <ele>1093</ele>
        <time>2023-05-03T14:55:40+02:00</time>
      </trkpt>
      <trkpt lat="44.94448" lon="2.67915">
        <ele>1093</ele>
        <time>2023-05-03T14:55:50+02:00</time>
      </trkpt>
      <trkpt lat="44.94422" lon="2.67919">
        <ele>1093</ele>
        <time>2023-05-03T14:55:59+02:00</time>
      </trkpt>
      <trkpt lat="44.94396" lon="2.67925">
        <ele>1093</ele>
        <time>2023-05-03T14:56:06+02:00</time>
      </trkpt>
      <trkpt lat="44.9437" lon="2.67931">
        <ele>1072</ele>
        <time>2023-05-03T14:56:13+02:00</time>
      </trkpt>
      <trkpt lat="44.94347" lon="2.67932">
        <ele>1069</ele>
        <time>2023-05-03T14:56:21+02:00</time>
      </trkpt>
      <trkpt lat="44.94322" lon="2.67933">
        <ele>1067</ele>
        <time>2023-05-03T14:56:26+02:00</time>
      </trkpt>
      <trkpt lat="44.94298" lon="2.67937">
        <ele>1070</ele>
        <time>2023-05-03T14:56:34+02:00</time>
      </trkpt>
      <trkpt lat="44.94272" lon="2.67949">
        <ele>1071</ele>
        <time>2023-05-03T14:56:42+02:00</time>
      </trkpt>
      <trkpt lat="44.94247" lon="2.67953">
        <ele>1069</ele>
        <time>2023-05-03T14:56:50+02:00</time>
      </trkpt>
      <trkpt lat="44.94219" lon="2.67958">
        <ele>1066</ele>
        <time>2023-05-03T14:56:59+02:00</time>
      </trkpt>
      <trkpt lat="44.94193" lon="2.67958">
        <ele>1070</ele>
        <time>2023-05-03T14:58:25+02:00</time>
      </trkpt>
      <trkpt lat="44.94162" lon="2.67954">
        <ele>1069</ele>
        <time>2023-05-03T14:58:32+02:00</time>
      </trkpt>
      <trkpt lat="44.94132" lon="2.67949">
        <ele>1067</ele>
        <time>2023-05-03T14:58:42+02:00</time>
      </trkpt>
      <trkpt lat="44.94109" lon="2.67945">
        <ele>1070</ele>
        <time>2023-05-03T14:58:51+02:00</time>
      </trkpt>
      <trkpt lat="44.93399" lon="2.68182">
        <ele>1093</ele>
        <time>2023-05-03T15:08:48+02:00</time>
      </trkpt>
      <trkpt lat="44.93386" lon="2.68208">
        <ele>1029</ele>
        <time>2023-05-03T15:09:15+02:00</time>
      </trkpt>
      <trkpt lat="44.93363" lon="2.68194">
        <ele>1026</ele>
        <time>2023-05-03T15:09:36+02:00</time>
      </trkpt>
      <trkpt lat="44.93342" lon="2.68181">
        <ele>1024</ele>
        <time>2023-05-03T15:09:43+02:00</time>
      </trkpt>
      <trkpt lat="44.9332" lon="2.68165">
        <ele>1012</ele>
        <time>2023-05-03T15:09:54+02:00</time>
      </trkpt>
      <trkpt lat="44.93297" lon="2.68158">
        <ele>1012</ele>
        <time>2023-05-03T15:10:02+02:00</time>
      </trkpt>
      <trkpt lat="44.93231" lon="2.68107">
        <ele>1002</ele>
        <time>2023-05-03T15:10:14+02:00</time>
      </trkpt>
      <trkpt lat="44.93206" lon="2.68085">
        <ele>1002</ele>
        <time>2023-05-03T15:10:19+02:00</time>
      </trkpt>
      <trkpt lat="44.93181" lon="2.68067">
        <ele>1000</ele>
        <time>2023-05-03T15:10:24+02:00</time>
      </trkpt>
      <trkpt lat="44.93149" lon="2.68051">
        <ele>1002</ele>
        <time>2023-05-03T15:10:29+02:00</time>
      </trkpt>
      <trkpt lat="44.93116" lon="2.6805">
        <ele>1002</ele>
        <time>2023-05-03T15:10:34+02:00</time>
      </trkpt>
      <trkpt lat="44.93081" lon="2.6805">
        <ele>1003</ele>
        <time>2023-05-03T15:10:39+02:00</time>
      </trkpt>
      <trkpt lat="44.93048" lon="2.6805">
        <ele>1001</ele>
        <time>2023-05-03T15:10:44+02:00</time>
      </trkpt>
      <trkpt lat="44.93014" lon="2.68049">
        <ele>1005</ele>
        <time>2023-05-03T15:10:49+02:00</time>
      </trkpt>
      <trkpt lat="44.92984" lon="2.68042">
        <ele>1002</ele>
        <time>2023-05-03T15:10:54+02:00</time>
      </trkpt>
      <trkpt lat="44.92952" lon="2.68038">
        <ele>998</ele>
        <time>2023-05-03T15:10:59+02:00</time>
      </trkpt>
      <trkpt lat="44.92919" lon="2.68033">
        <ele>994</ele>
        <time>2023-05-03T15:11:04+02:00</time>
      </trkpt>
      <trkpt lat="44.92887" lon="2.68032">
        <ele>994</ele>
        <time>2023-05-03T15:11:09+02:00</time>
      </trkpt>
      <trkpt lat="44.92862" lon="2.68031">
        <ele>989</ele>
        <time>2023-05-03T15:11:14+02:00</time>
      </trkpt>
      <trkpt lat="44.92832" lon="2.68029">
        <ele>984</ele>
        <time>2023-05-03T15:11:19+02:00</time>
      </trkpt>
      <trkpt lat="44.92799" lon="2.68033">
        <ele>985</ele>
        <time>2023-05-03T15:11:24+02:00</time>
      </trkpt>
      <trkpt lat="44.9277" lon="2.68033">
        <ele>984</ele>
        <time>2023-05-03T15:11:29+02:00</time>
      </trkpt>
      <trkpt lat="44.92742" lon="2.6802">
        <ele>982</ele>
        <time>2023-05-03T15:11:34+02:00</time>
      </trkpt>
      <trkpt lat="44.9272" lon="2.68003">
        <ele>981</ele>
        <time>2023-05-03T15:11:39+02:00</time>
      </trkpt>
      <trkpt lat="44.9271" lon="2.67972">
        <ele>978</ele>
        <time>2023-05-03T15:11:44+02:00</time>
      </trkpt>
      <trkpt lat="44.9271" lon="2.67938">
        <ele>977</ele>
        <time>2023-05-03T15:11:49+02:00</time>
      </trkpt>
      <trkpt lat="44.92675" lon="2.67906">
        <ele>978</ele>
        <time>2023-05-03T15:12:04+02:00</time>
      </trkpt>
      <trkpt lat="44.92645" lon="2.67897">
        <ele>982</ele>
        <time>2023-05-03T15:12:14+02:00</time>
      </trkpt>
      <trkpt lat="44.92616" lon="2.67897">
        <ele>980</ele>
        <time>2023-05-03T15:12:22+02:00</time>
      </trkpt>
      <trkpt lat="44.92588" lon="2.67889">
        <ele>976</ele>
        <time>2023-05-03T15:12:30+02:00</time>
      </trkpt>
      <trkpt lat="44.92559" lon="2.67881">
        <ele>976</ele>
        <time>2023-05-03T15:12:40+02:00</time>
      </trkpt>
      <trkpt lat="44.92499" lon="2.67873">
        <ele>974</ele>
        <time>2023-05-03T15:12:49+02:00</time>
      </trkpt>
      <trkpt lat="44.92478" lon="2.67887">
        <ele>972</ele>
        <time>2023-05-03T15:13:14+02:00</time>
      </trkpt>
      <trkpt lat="44.92457" lon="2.67926">
        <ele>959</ele>
        <time>2023-05-03T15:13:29+02:00</time>
      </trkpt>
      <trkpt lat="44.9244" lon="2.6796">
        <ele>959</ele>
        <time>2023-05-03T15:13:35+02:00</time>
      </trkpt>
      <trkpt lat="44.92422" lon="2.68005">
        <ele>956</ele>
        <time>2023-05-03T15:13:41+02:00</time>
      </trkpt>
      <trkpt lat="44.92408" lon="2.68059">
        <ele>963</ele>
        <time>2023-05-03T15:13:49+02:00</time>
      </trkpt>
      <trkpt lat="44.92391" lon="2.68037">
        <ele>967</ele>
        <time>2023-05-03T15:14:04+02:00</time>
      </trkpt>
      <trkpt lat="44.9237" lon="2.67963">
        <ele>970</ele>
        <time>2023-05-03T15:14:14+02:00</time>
      </trkpt>
      <trkpt lat="44.92356" lon="2.6793">
        <ele>963</ele>
        <time>2023-05-03T15:14:19+02:00</time>
      </trkpt>
      <trkpt lat="44.92336" lon="2.67895">
        <ele>962</ele>
        <time>2023-05-03T15:14:24+02:00</time>
      </trkpt>
      <trkpt lat="44.92307" lon="2.67862">
        <ele>963</ele>
        <time>2023-05-03T15:14:29+02:00</time>
      </trkpt>
      <trkpt lat="44.92275" lon="2.67838">
        <ele>962</ele>
        <time>2023-05-03T15:14:34+02:00</time>
      </trkpt>
      <trkpt lat="44.92244" lon="2.6783">
        <ele>961</ele>
        <time>2023-05-03T15:14:39+02:00</time>
      </trkpt>
      <trkpt lat="44.92233" lon="2.67788">
        <ele>959</ele>
        <time>2023-05-03T15:14:49+02:00</time>
      </trkpt>
      <trkpt lat="44.92234" lon="2.67747">
        <ele>961</ele>
        <time>2023-05-03T15:14:59+02:00</time>
      </trkpt>
      <trkpt lat="44.92234" lon="2.677">
        <ele>964</ele>
        <time>2023-05-03T15:15:06+02:00</time>
      </trkpt>
      <trkpt lat="44.92206" lon="2.67683">
        <ele>964</ele>
        <time>2023-05-03T15:15:17+02:00</time>
      </trkpt>
      <trkpt lat="44.92179" lon="2.6769">
        <ele>959</ele>
        <time>2023-05-03T15:15:25+02:00</time>
      </trkpt>
      <trkpt lat="44.9215" lon="2.67695">
        <ele>964</ele>
        <time>2023-05-03T15:15:32+02:00</time>
      </trkpt>
      <trkpt lat="44.9212" lon="2.67699">
        <ele>963</ele>
        <time>2023-05-03T15:16:05+02:00</time>
      </trkpt>
      <trkpt lat="44.9209" lon="2.67699">
        <ele>964</ele>
        <time>2023-05-03T15:16:13+02:00</time>
      </trkpt>
      <trkpt lat="44.92044" lon="2.67703">
        <ele>961</ele>
        <time>2023-05-03T15:16:26+02:00</time>
      </trkpt>
      <trkpt lat="44.92019" lon="2.67705">
        <ele>962</ele>
        <time>2023-05-03T15:16:35+02:00</time>
      </trkpt>
      <trkpt lat="44.91993" lon="2.67706">
        <ele>962</ele>
        <time>2023-05-03T15:16:40+02:00</time>
      </trkpt>
      <trkpt lat="44.91963" lon="2.67707">
        <ele>962</ele>
        <time>2023-05-03T15:16:48+02:00</time>
      </trkpt>
      <trkpt lat="44.91939" lon="2.67711">
        <ele>961</ele>
        <time>2023-05-03T15:16:55+02:00</time>
      </trkpt>
      <trkpt lat="44.91915" lon="2.67715">
        <ele>964</ele>
        <time>2023-05-03T15:17:02+02:00</time>
      </trkpt>
      <trkpt lat="44.91888" lon="2.67714">
        <ele>963</ele>
        <time>2023-05-03T15:17:14+02:00</time>
      </trkpt>
      <trkpt lat="44.9189" lon="2.67675">
        <ele>965</ele>
        <time>2023-05-03T15:18:11+02:00</time>
      </trkpt>
      <trkpt lat="44.91883" lon="2.67634">
        <ele>962</ele>
        <time>2023-05-03T15:18:21+02:00</time>
      </trkpt>
      <trkpt lat="44.91875" lon="2.67603">
        <ele>961</ele>
        <time>2023-05-03T15:18:28+02:00</time>
      </trkpt>
      <trkpt lat="44.9187" lon="2.67561">
        <ele>961</ele>
        <time>2023-05-03T15:18:39+02:00</time>
      </trkpt>
      <trkpt lat="44.91853" lon="2.67533">
        <ele>952</ele>
        <time>2023-05-03T15:18:54+02:00</time>
      </trkpt>
      <trkpt lat="44.91825" lon="2.67526">
        <ele>949</ele>
        <time>2023-05-03T15:19:02+02:00</time>
      </trkpt>
      <trkpt lat="44.91804" lon="2.67513">
        <ele>946</ele>
        <time>2023-05-03T15:19:13+02:00</time>
      </trkpt>
      <trkpt lat="44.91776" lon="2.6749">
        <ele>946</ele>
        <time>2023-05-03T15:19:26+02:00</time>
      </trkpt>
      <trkpt lat="44.91755" lon="2.67472">
        <ele>945</ele>
        <time>2023-05-03T15:19:36+02:00</time>
      </trkpt>
      <trkpt lat="44.91732" lon="2.6746">
        <ele>949</ele>
        <time>2023-05-03T15:19:47+02:00</time>
      </trkpt>
      <trkpt lat="44.91704" lon="2.67472">
        <ele>952</ele>
        <time>2023-05-03T15:20:08+02:00</time>
      </trkpt>
      <trkpt lat="44.91676" lon="2.67478">
        <ele>956</ele>
        <time>2023-05-03T15:20:23+02:00</time>
      </trkpt>
      <trkpt lat="44.91652" lon="2.67491">
        <ele>955</ele>
        <time>2023-05-03T15:20:36+02:00</time>
      </trkpt>
      <trkpt lat="44.91623" lon="2.67505">
        <ele>961</ele>
        <time>2023-05-03T15:20:48+02:00</time>
      </trkpt>
      <trkpt lat="44.91597" lon="2.67506">
        <ele>953</ele>
        <time>2023-05-03T15:22:19+02:00</time>
      </trkpt>
      <trkpt lat="44.91578" lon="2.67487">
        <ele>945</ele>
        <time>2023-05-03T15:22:33+02:00</time>
      </trkpt>
      <trkpt lat="44.91556" lon="2.67473">
        <ele>944</ele>
        <time>2023-05-03T15:23:19+02:00</time>
      </trkpt>
      <trkpt lat="44.91542" lon="2.67448">
        <ele>944</ele>
        <time>2023-05-03T15:23:26+02:00</time>
      </trkpt>
      <trkpt lat="44.91533" lon="2.67416">
        <ele>946</ele>
        <time>2023-05-03T15:23:37+02:00</time>
      </trkpt>
      <trkpt lat="44.9152" lon="2.67382">
        <ele>938</ele>
        <time>2023-05-03T15:23:42+02:00</time>
      </trkpt>
      <trkpt lat="44.91501" lon="2.67357">
        <ele>937</ele>
        <time>2023-05-03T15:23:52+02:00</time>
      </trkpt>
      <trkpt lat="44.91491" lon="2.67328">
        <ele>925</ele>
        <time>2023-05-03T15:24:02+02:00</time>
      </trkpt>
      <trkpt lat="44.91491" lon="2.67294">
        <ele>916</ele>
        <time>2023-05-03T15:27:23+02:00</time>
      </trkpt>
      <trkpt lat="44.91484" lon="2.67244">
        <ele>904</ele>
        <time>2023-05-03T15:27:30+02:00</time>
      </trkpt>
      <trkpt lat="44.91481" lon="2.67211">
        <ele>904</ele>
        <time>2023-05-03T15:27:38+02:00</time>
      </trkpt>
      <trkpt lat="44.91463" lon="2.6717">
        <ele>903</ele>
        <time>2023-05-03T15:27:51+02:00</time>
      </trkpt>
      <trkpt lat="44.91433" lon="2.67165">
        <ele>894</ele>
        <time>2023-05-03T15:28:01+02:00</time>
      </trkpt>
      <trkpt lat="44.91408" lon="2.67178">
        <ele>895</ele>
        <time>2023-05-03T15:28:11+02:00</time>
      </trkpt>
      <trkpt lat="44.91395" lon="2.67209">
        <ele>899</ele>
        <time>2023-05-03T15:28:26+02:00</time>
      </trkpt>
      <trkpt lat="44.91389" lon="2.67242">
        <ele>889</ele>
        <time>2023-05-03T15:28:41+02:00</time>
      </trkpt>
      <trkpt lat="44.91387" lon="2.67274">
        <ele>885</ele>
        <time>2023-05-03T15:28:51+02:00</time>
      </trkpt>
      <trkpt lat="44.91372" lon="2.67298">
        <ele>881</ele>
        <time>2023-05-03T15:29:02+02:00</time>
      </trkpt>
      <trkpt lat="44.91346" lon="2.67306">
        <ele>882</ele>
        <time>2023-05-03T15:29:12+02:00</time>
      </trkpt>
      <trkpt lat="44.91322" lon="2.67305">
        <ele>877</ele>
        <time>2023-05-03T15:29:22+02:00</time>
      </trkpt>
      <trkpt lat="44.91298" lon="2.67306">
        <ele>877</ele>
        <time>2023-05-03T15:29:33+02:00</time>
      </trkpt>
      <trkpt lat="44.9127" lon="2.67314">
        <ele>877</ele>
        <time>2023-05-03T15:29:43+02:00</time>
      </trkpt>
      <trkpt lat="44.91244" lon="2.67312">
        <ele>872</ele>
        <time>2023-05-03T15:29:56+02:00</time>
      </trkpt>
      <trkpt lat="44.91211" lon="2.67299">
        <ele>869</ele>
        <time>2023-05-03T15:30:53+02:00</time>
      </trkpt>
      <trkpt lat="44.91188" lon="2.67302">
        <ele>869</ele>
        <time>2023-05-03T15:31:04+02:00</time>
      </trkpt>
      <trkpt lat="44.91183" lon="2.67291">
        <ele>867</ele>
        <time>2023-05-03T15:31:38+02:00</time>
      </trkpt>
      <trkpt lat="44.91165" lon="2.67316">
        <ele>860</ele>
        <time>2023-05-03T15:32:16+02:00</time>
      </trkpt>
      <trkpt lat="44.91145" lon="2.67335">
        <ele>858</ele>
        <time>2023-05-03T15:32:24+02:00</time>
      </trkpt>
      <trkpt lat="44.91117" lon="2.6735">
        <ele>860</ele>
        <time>2023-05-03T15:32:31+02:00</time>
      </trkpt>
      <trkpt lat="44.91094" lon="2.67372">
        <ele>857</ele>
        <time>2023-05-03T15:32:41+02:00</time>
      </trkpt>
      <trkpt lat="44.91074" lon="2.674">
        <ele>861</ele>
        <time>2023-05-03T15:32:51+02:00</time>
      </trkpt>
      <trkpt lat="44.91054" lon="2.67421">
        <ele>868</ele>
        <time>2023-05-03T15:33:05+02:00</time>
      </trkpt>
      <trkpt lat="44.91033" lon="2.67402">
        <ele>868</ele>
        <time>2023-05-03T15:33:17+02:00</time>
      </trkpt>
      <trkpt lat="44.91015" lon="2.67382">
        <ele>868</ele>
        <time>2023-05-03T15:33:20+02:00</time>
      </trkpt>
      <trkpt lat="44.90989" lon="2.6732">
        <ele>868</ele>
        <time>2023-05-03T15:33:29+02:00</time>
      </trkpt>
      <trkpt lat="44.90983" lon="2.67284">
        <ele>868</ele>
        <time>2023-05-03T15:33:34+02:00</time>
      </trkpt>
      <trkpt lat="44.90971" lon="2.67256">
        <ele>868</ele>
        <time>2023-05-03T15:33:44+02:00</time>
      </trkpt>
      <trkpt lat="44.90934" lon="2.67241">
        <ele>868</ele>
        <time>2023-05-03T15:33:54+02:00</time>
      </trkpt>
      <trkpt lat="44.90905" lon="2.67249">
        <ele>868</ele>
        <time>2023-05-03T15:34:01+02:00</time>
      </trkpt>
      <trkpt lat="44.90882" lon="2.67262">
        <ele>868</ele>
        <time>2023-05-03T15:34:11+02:00</time>
      </trkpt>
      <trkpt lat="44.90858" lon="2.6728">
        <ele>868</ele>
        <time>2023-05-03T15:34:21+02:00</time>
      </trkpt>
      <trkpt lat="44.90831" lon="2.67278">
        <ele>868</ele>
        <time>2023-05-03T15:34:32+02:00</time>
      </trkpt>
      <trkpt lat="44.90817" lon="2.67251">
        <ele>868</ele>
        <time>2023-05-03T15:34:44+02:00</time>
      </trkpt>
      <trkpt lat="44.90805" lon="2.67216">
        <ele>868</ele>
        <time>2023-05-03T15:34:57+02:00</time>
      </trkpt>
      <trkpt lat="44.90789" lon="2.67193">
        <ele>868</ele>
        <time>2023-05-03T15:35:08+02:00</time>
      </trkpt>
      <trkpt lat="44.90769" lon="2.67179">
        <ele>868</ele>
        <time>2023-05-03T15:35:16+02:00</time>
      </trkpt>
      <trkpt lat="44.90744" lon="2.67184">
        <ele>868</ele>
        <time>2023-05-03T15:35:23+02:00</time>
      </trkpt>
      <trkpt lat="44.90721" lon="2.67196">
        <ele>868</ele>
        <time>2023-05-03T15:35:31+02:00</time>
      </trkpt>
      <trkpt lat="44.90696" lon="2.67199">
        <ele>868</ele>
        <time>2023-05-03T15:35:44+02:00</time>
      </trkpt>
      <trkpt lat="44.90668" lon="2.67197">
        <ele>868</ele>
        <time>2023-05-03T15:35:56+02:00</time>
      </trkpt>
      <trkpt lat="44.90646" lon="2.67188">
        <ele>868</ele>
        <time>2023-05-03T15:36:06+02:00</time>
      </trkpt>
      <trkpt lat="44.90625" lon="2.67177">
        <ele>868</ele>
        <time>2023-05-03T15:36:19+02:00</time>
      </trkpt>
      <trkpt lat="44.90603" lon="2.67165">
        <ele>868</ele>
        <time>2023-05-03T15:36:29+02:00</time>
      </trkpt>
      <trkpt lat="44.90581" lon="2.6715">
        <ele>868</ele>
        <time>2023-05-03T15:36:41+02:00</time>
      </trkpt>
      <trkpt lat="44.90556" lon="2.67137">
        <ele>868</ele>
        <time>2023-05-03T15:36:58+02:00</time>
      </trkpt>
      <trkpt lat="44.90534" lon="2.67127">
        <ele>868</ele>
        <time>2023-05-03T15:37:13+02:00</time>
      </trkpt>
      <trkpt lat="44.90509" lon="2.67134">
        <ele>868</ele>
        <time>2023-05-03T15:37:32+02:00</time>
      </trkpt>
      <trkpt lat="44.90487" lon="2.67146">
        <ele>857</ele>
        <time>2023-05-03T15:37:50+02:00</time>
      </trkpt>
      <trkpt lat="44.90464" lon="2.67149">
        <ele>859</ele>
        <time>2023-05-03T15:38:05+02:00</time>
      </trkpt>
      <trkpt lat="44.9044" lon="2.67151">
        <ele>860</ele>
        <time>2023-05-03T15:38:22+02:00</time>
      </trkpt>
      <trkpt lat="44.90416" lon="2.67155">
        <ele>868</ele>
        <time>2023-05-03T15:38:38+02:00</time>
      </trkpt>
      <trkpt lat="44.90393" lon="2.67155">
        <ele>863</ele>
        <time>2023-05-03T15:38:49+02:00</time>
      </trkpt>
      <trkpt lat="44.90363" lon="2.67151">
        <ele>866</ele>
        <time>2023-05-03T15:39:01+02:00</time>
      </trkpt>
      <trkpt lat="44.90335" lon="2.67155">
        <ele>867</ele>
        <time>2023-05-03T15:39:11+02:00</time>
      </trkpt>
      <trkpt lat="44.90312" lon="2.67161">
        <ele>865</ele>
        <time>2023-05-03T15:39:20+02:00</time>
      </trkpt>
      <trkpt lat="44.90289" lon="2.67174">
        <ele>866</ele>
        <time>2023-05-03T15:39:32+02:00</time>
      </trkpt>
      <trkpt lat="44.90267" lon="2.67186">
        <ele>868</ele>
        <time>2023-05-03T15:39:41+02:00</time>
      </trkpt>
      <trkpt lat="44.90243" lon="2.67197">
        <ele>865</ele>
        <time>2023-05-03T15:39:56+02:00</time>
      </trkpt>
      <trkpt lat="44.90223" lon="2.67216">
        <ele>874</ele>
        <time>2023-05-03T15:40:15+02:00</time>
      </trkpt>
      <trkpt lat="44.90204" lon="2.67235">
        <ele>876</ele>
        <time>2023-05-03T15:40:25+02:00</time>
      </trkpt>
      <trkpt lat="44.90175" lon="2.67247">
        <ele>876</ele>
        <time>2023-05-03T15:40:41+02:00</time>
      </trkpt>
      <trkpt lat="44.90153" lon="2.67256">
        <ele>878</ele>
        <time>2023-05-03T15:44:53+02:00</time>
      </trkpt>
      <trkpt lat="44.90129" lon="2.6726">
        <ele>883</ele>
        <time>2023-05-03T15:45:05+02:00</time>
      </trkpt>
      <trkpt lat="44.90106" lon="2.67268">
        <ele>878</ele>
        <time>2023-05-03T15:45:13+02:00</time>
      </trkpt>
      <trkpt lat="44.9008" lon="2.67268">
        <ele>884</ele>
        <time>2023-05-03T15:45:24+02:00</time>
      </trkpt>
      <trkpt lat="44.90058" lon="2.67257">
        <ele>896</ele>
        <time>2023-05-03T15:45:46+02:00</time>
      </trkpt>
      <trkpt lat="44.90035" lon="2.6725">
        <ele>896</ele>
        <time>2023-05-03T15:46:00+02:00</time>
      </trkpt>
      <trkpt lat="44.90012" lon="2.67254">
        <ele>896</ele>
        <time>2023-05-03T15:46:15+02:00</time>
      </trkpt>
      <trkpt lat="44.89986" lon="2.67259">
        <ele>901</ele>
        <time>2023-05-03T15:46:29+02:00</time>
      </trkpt>
      <trkpt lat="44.89963" lon="2.67264">
        <ele>897</ele>
        <time>2023-05-03T15:46:43+02:00</time>
      </trkpt>
      <trkpt lat="44.89939" lon="2.6728">
        <ele>907</ele>
        <time>2023-05-03T15:48:28+02:00</time>
      </trkpt>
      <trkpt lat="44.89911" lon="2.67276">
        <ele>913</ele>
        <time>2023-05-03T15:49:18+02:00</time>
      </trkpt>
      <trkpt lat="44.89888" lon="2.67254">
        <ele>911</ele>
        <time>2023-05-03T15:49:23+02:00</time>
      </trkpt>
      <trkpt lat="44.8986" lon="2.67235">
        <ele>910</ele>
        <time>2023-05-03T15:49:31+02:00</time>
      </trkpt>
      <trkpt lat="44.89833" lon="2.67226">
        <ele>913</ele>
        <time>2023-05-03T15:49:38+02:00</time>
      </trkpt>
      <trkpt lat="44.89813" lon="2.67209">
        <ele>913</ele>
        <time>2023-05-03T15:49:48+02:00</time>
      </trkpt>
      <trkpt lat="44.89805" lon="2.67175">
        <ele>919</ele>
        <time>2023-05-03T15:49:58+02:00</time>
      </trkpt>
      <trkpt lat="44.89785" lon="2.67159">
        <ele>918</ele>
        <time>2023-05-03T15:50:07+02:00</time>
      </trkpt>
      <trkpt lat="44.89758" lon="2.67153">
        <ele>926</ele>
        <time>2023-05-03T15:50:18+02:00</time>
      </trkpt>
      <trkpt lat="44.89787" lon="2.67167">
        <ele>923</ele>
        <time>2023-05-03T16:05:21+02:00</time>
      </trkpt>
      <trkpt lat="44.89808" lon="2.67181">
        <ele>919</ele>
        <time>2023-05-03T16:05:33+02:00</time>
      </trkpt>
      <trkpt lat="44.89817" lon="2.67219">
        <ele>914</ele>
        <time>2023-05-03T16:05:45+02:00</time>
      </trkpt>
      <trkpt lat="44.8984" lon="2.67237">
        <ele>914</ele>
        <time>2023-05-03T16:05:55+02:00</time>
      </trkpt>
      <trkpt lat="44.89867" lon="2.67243">
        <ele>913</ele>
        <time>2023-05-03T16:06:02+02:00</time>
      </trkpt>
      <trkpt lat="44.89893" lon="2.67257">
        <ele>911</ele>
        <time>2023-05-03T16:06:09+02:00</time>
      </trkpt>
      <trkpt lat="44.89918" lon="2.67281">
        <ele>908</ele>
        <time>2023-05-03T16:06:17+02:00</time>
      </trkpt>
      <trkpt lat="44.89942" lon="2.67301">
        <ele>921</ele>
        <time>2023-05-03T16:06:30+02:00</time>
      </trkpt>
      <trkpt lat="44.89956" lon="2.67327">
        <ele>911</ele>
        <time>2023-05-03T16:08:05+02:00</time>
      </trkpt>
      <trkpt lat="44.89974" lon="2.67351">
        <ele>916</ele>
        <time>2023-05-03T16:08:15+02:00</time>
      </trkpt>
      <trkpt lat="44.89993" lon="2.67374">
        <ele>914</ele>
        <time>2023-05-03T16:08:26+02:00</time>
      </trkpt>
      <trkpt lat="44.90016" lon="2.67393">
        <ele>918</ele>
        <time>2023-05-03T16:08:35+02:00</time>
      </trkpt>
      <trkpt lat="44.90038" lon="2.67415">
        <ele>921</ele>
        <time>2023-05-03T16:08:47+02:00</time>
      </trkpt>
      <trkpt lat="44.9005" lon="2.67446">
        <ele>923</ele>
        <time>2023-05-03T16:09:02+02:00</time>
      </trkpt>
      <trkpt lat="44.90071" lon="2.67463">
        <ele>924</ele>
        <time>2023-05-03T16:09:14+02:00</time>
      </trkpt>
      <trkpt lat="44.90096" lon="2.67478">
        <ele>927</ele>
        <time>2023-05-03T16:09:29+02:00</time>
      </trkpt>
      <trkpt lat="44.9012" lon="2.6749">
        <ele>933</ele>
        <time>2023-05-03T16:09:42+02:00</time>
      </trkpt>
      <trkpt lat="44.90142" lon="2.67504">
        <ele>938</ele>
        <time>2023-05-03T16:09:57+02:00</time>
      </trkpt>
      <trkpt lat="44.90164" lon="2.67496">
        <ele>929</ele>
        <time>2023-05-03T16:10:06+02:00</time>
      </trkpt>
      <trkpt lat="44.90188" lon="2.67498">
        <ele>930</ele>
        <time>2023-05-03T16:10:13+02:00</time>
      </trkpt>
      <trkpt lat="44.90209" lon="2.67513">
        <ele>934</ele>
        <time>2023-05-03T16:10:21+02:00</time>
      </trkpt>
      <trkpt lat="44.9023" lon="2.67526">
        <ele>932</ele>
        <time>2023-05-03T16:10:28+02:00</time>
      </trkpt>
      <trkpt lat="44.90254" lon="2.67541">
        <ele>936</ele>
        <time>2023-05-03T16:10:40+02:00</time>
      </trkpt>
      <trkpt lat="44.90283" lon="2.67542">
        <ele>937</ele>
        <time>2023-05-03T16:11:14+02:00</time>
      </trkpt>
      <trkpt lat="44.90303" lon="2.67568">
        <ele>938</ele>
        <time>2023-05-03T16:11:23+02:00</time>
      </trkpt>
      <trkpt lat="44.90322" lon="2.67589">
        <ele>934</ele>
        <time>2023-05-03T16:11:34+02:00</time>
      </trkpt>
      <trkpt lat="44.90345" lon="2.67596">
        <ele>937</ele>
        <time>2023-05-03T16:11:41+02:00</time>
      </trkpt>
      <trkpt lat="44.90372" lon="2.67609">
        <ele>942</ele>
        <time>2023-05-03T16:11:53+02:00</time>
      </trkpt>
      <trkpt lat="44.90396" lon="2.67614">
        <ele>945</ele>
        <time>2023-05-03T16:12:06+02:00</time>
      </trkpt>
      <trkpt lat="44.90422" lon="2.67621">
        <ele>943</ele>
        <time>2023-05-03T16:12:18+02:00</time>
      </trkpt>
      <trkpt lat="44.90447" lon="2.67632">
        <ele>939</ele>
        <time>2023-05-03T16:12:35+02:00</time>
      </trkpt>
      <trkpt lat="44.90467" lon="2.67648">
        <ele>936</ele>
        <time>2023-05-03T16:13:40+02:00</time>
      </trkpt>
      <trkpt lat="44.90487" lon="2.67667">
        <ele>940</ele>
        <time>2023-05-03T16:13:50+02:00</time>
      </trkpt>
      <trkpt lat="44.90527" lon="2.67698">
        <ele>950</ele>
        <time>2023-05-03T16:14:57+02:00</time>
      </trkpt>
      <trkpt lat="44.90551" lon="2.67701">
        <ele>943</ele>
        <time>2023-05-03T16:18:31+02:00</time>
      </trkpt>
      <trkpt lat="44.90571" lon="2.67724">
        <ele>942</ele>
        <time>2023-05-03T16:18:43+02:00</time>
      </trkpt>
      <trkpt lat="44.90592" lon="2.67754">
        <ele>938</ele>
        <time>2023-05-03T16:18:53+02:00</time>
      </trkpt>
      <trkpt lat="44.90614" lon="2.67777">
        <ele>936</ele>
        <time>2023-05-03T16:19:03+02:00</time>
      </trkpt>
      <trkpt lat="44.90635" lon="2.67788">
        <ele>932</ele>
        <time>2023-05-03T16:19:11+02:00</time>
      </trkpt>
      <trkpt lat="44.90662" lon="2.67786">
        <ele>932</ele>
        <time>2023-05-03T16:19:21+02:00</time>
      </trkpt>
      <trkpt lat="44.90686" lon="2.67781">
        <ele>928</ele>
        <time>2023-05-03T16:19:29+02:00</time>
      </trkpt>
      <trkpt lat="44.90711" lon="2.6779">
        <ele>925</ele>
        <time>2023-05-03T16:19:41+02:00</time>
      </trkpt>
      <trkpt lat="44.907" lon="2.67743">
        <ele>917</ele>
        <time>2023-05-03T16:20:14+02:00</time>
      </trkpt>
      <trkpt lat="44.9072" lon="2.67763">
        <ele>924</ele>
        <time>2023-05-03T16:20:40+02:00</time>
      </trkpt>
      <trkpt lat="44.90736" lon="2.67789">
        <ele>928</ele>
        <time>2023-05-03T16:20:53+02:00</time>
      </trkpt>
      <trkpt lat="44.90751" lon="2.67814">
        <ele>931</ele>
        <time>2023-05-03T16:21:07+02:00</time>
      </trkpt>
      <trkpt lat="44.90775" lon="2.67826">
        <ele>935</ele>
        <time>2023-05-03T16:21:22+02:00</time>
      </trkpt>
      <trkpt lat="44.90798" lon="2.67838">
        <ele>939</ele>
        <time>2023-05-03T16:21:35+02:00</time>
      </trkpt>
      <trkpt lat="44.90826" lon="2.67849">
        <ele>942</ele>
        <time>2023-05-03T16:21:48+02:00</time>
      </trkpt>
      <trkpt lat="44.90853" lon="2.67842">
        <ele>946</ele>
        <time>2023-05-03T16:22:02+02:00</time>
      </trkpt>
      <trkpt lat="44.9088" lon="2.67835">
        <ele>947</ele>
        <time>2023-05-03T16:22:14+02:00</time>
      </trkpt>
      <trkpt lat="44.90906" lon="2.67837">
        <ele>943</ele>
        <time>2023-05-03T16:22:27+02:00</time>
      </trkpt>
      <trkpt lat="44.90928" lon="2.67844">
        <ele>949</ele>
        <time>2023-05-03T16:22:40+02:00</time>
      </trkpt>
      <trkpt lat="44.90956" lon="2.67856">
        <ele>947</ele>
        <time>2023-05-03T16:22:54+02:00</time>
      </trkpt>
      <trkpt lat="44.90981" lon="2.67858">
        <ele>946</ele>
        <time>2023-05-03T16:23:03+02:00</time>
      </trkpt>
      <trkpt lat="44.91006" lon="2.67858">
        <ele>948</ele>
        <time>2023-05-03T16:23:13+02:00</time>
      </trkpt>
      <trkpt lat="44.91031" lon="2.67858">
        <ele>949</ele>
        <time>2023-05-03T16:23:23+02:00</time>
      </trkpt>
      <trkpt lat="44.91057" lon="2.67857">
        <ele>953</ele>
        <time>2023-05-03T16:23:34+02:00</time>
      </trkpt>
      <trkpt lat="44.91083" lon="2.67855">
        <ele>951</ele>
        <time>2023-05-03T16:23:43+02:00</time>
      </trkpt>
      <trkpt lat="44.91108" lon="2.67855">
        <ele>951</ele>
        <time>2023-05-03T16:23:53+02:00</time>
      </trkpt>
      <trkpt lat="44.91133" lon="2.67857">
        <ele>953</ele>
        <time>2023-05-03T16:24:05+02:00</time>
      </trkpt>
      <trkpt lat="44.91161" lon="2.67853">
        <ele>955</ele>
        <time>2023-05-03T16:24:18+02:00</time>
      </trkpt>
      <trkpt lat="44.91186" lon="2.6785">
        <ele>955</ele>
        <time>2023-05-03T16:24:28+02:00</time>
      </trkpt>
      <trkpt lat="44.91213" lon="2.67855">
        <ele>956</ele>
        <time>2023-05-03T16:24:38+02:00</time>
      </trkpt>
      <trkpt lat="44.91239" lon="2.67863">
        <ele>956</ele>
        <time>2023-05-03T16:24:49+02:00</time>
      </trkpt>
      <trkpt lat="44.91268" lon="2.67866">
        <ele>953</ele>
        <time>2023-05-03T16:25:01+02:00</time>
      </trkpt>
      <trkpt lat="44.91291" lon="2.67866">
        <ele>958</ele>
        <time>2023-05-03T16:25:20+02:00</time>
      </trkpt>
      <trkpt lat="44.91316" lon="2.67856">
        <ele>958</ele>
        <time>2023-05-03T16:25:59+02:00</time>
      </trkpt>
      <trkpt lat="44.91346" lon="2.67849">
        <ele>961</ele>
        <time>2023-05-03T16:26:08+02:00</time>
      </trkpt>
      <trkpt lat="44.91373" lon="2.67839">
        <ele>960</ele>
        <time>2023-05-03T16:26:19+02:00</time>
      </trkpt>
      <trkpt lat="44.91396" lon="2.67832">
        <ele>961</ele>
        <time>2023-05-03T16:26:26+02:00</time>
      </trkpt>
      <trkpt lat="44.91422" lon="2.67824">
        <ele>960</ele>
        <time>2023-05-03T16:26:34+02:00</time>
      </trkpt>
      <trkpt lat="44.91449" lon="2.67817">
        <ele>962</ele>
        <time>2023-05-03T16:26:43+02:00</time>
      </trkpt>
      <trkpt lat="44.91475" lon="2.67809">
        <ele>961</ele>
        <time>2023-05-03T16:26:51+02:00</time>
      </trkpt>
      <trkpt lat="44.91499" lon="2.67803">
        <ele>963</ele>
        <time>2023-05-03T16:27:00+02:00</time>
      </trkpt>
      <trkpt lat="44.91523" lon="2.67796">
        <ele>965</ele>
        <time>2023-05-03T16:27:10+02:00</time>
      </trkpt>
      <trkpt lat="44.91831" lon="2.67726">
        <ele>969</ele>
        <time>2023-05-03T16:29:42+02:00</time>
      </trkpt>
      <trkpt lat="44.91856" lon="2.67725">
        <ele>970</ele>
        <time>2023-05-03T16:30:26+02:00</time>
      </trkpt>
      <trkpt lat="44.91882" lon="2.6772">
        <ele>969</ele>
        <time>2023-05-03T16:30:33+02:00</time>
      </trkpt>
      <trkpt lat="44.91907" lon="2.67716">
        <ele>969</ele>
        <time>2023-05-03T16:30:40+02:00</time>
      </trkpt>
      <trkpt lat="44.91932" lon="2.67711">
        <ele>968</ele>
        <time>2023-05-03T16:30:48+02:00</time>
      </trkpt>
      <trkpt lat="44.9196" lon="2.67707">
        <ele>967</ele>
        <time>2023-05-03T16:30:55+02:00</time>
      </trkpt>
      <trkpt lat="44.91986" lon="2.67707">
        <ele>970</ele>
        <time>2023-05-03T16:31:03+02:00</time>
      </trkpt>
      <trkpt lat="44.92011" lon="2.67705">
        <ele>970</ele>
        <time>2023-05-03T16:31:08+02:00</time>
      </trkpt>
      <trkpt lat="44.92038" lon="2.67704">
        <ele>968</ele>
        <time>2023-05-03T16:31:15+02:00</time>
      </trkpt>
      <trkpt lat="44.92078" lon="2.67704">
        <ele>965</ele>
        <time>2023-05-03T16:31:26+02:00</time>
      </trkpt>
      <trkpt lat="44.9211" lon="2.677">
        <ele>968</ele>
        <time>2023-05-03T16:31:34+02:00</time>
      </trkpt>
      <trkpt lat="44.92134" lon="2.67698">
        <ele>967</ele>
        <time>2023-05-03T16:31:40+02:00</time>
      </trkpt>
      <trkpt lat="44.92157" lon="2.677">
        <ele>965</ele>
        <time>2023-05-03T16:31:48+02:00</time>
      </trkpt>
      <trkpt lat="44.92196" lon="2.67702">
        <ele>965</ele>
        <time>2023-05-03T16:31:58+02:00</time>
      </trkpt>
      <trkpt lat="44.92227" lon="2.67696">
        <ele>968</ele>
        <time>2023-05-03T16:32:05+02:00</time>
      </trkpt>
      <trkpt lat="44.92243" lon="2.67724">
        <ele>965</ele>
        <time>2023-05-03T16:32:18+02:00</time>
      </trkpt>
      <trkpt lat="44.92237" lon="2.67764">
        <ele>967</ele>
        <time>2023-05-03T16:32:27+02:00</time>
      </trkpt>
      <trkpt lat="44.92234" lon="2.67812">
        <ele>966</ele>
        <time>2023-05-03T16:32:34+02:00</time>
      </trkpt>
      <trkpt lat="44.92251" lon="2.67836">
        <ele>962</ele>
        <time>2023-05-03T16:33:05+02:00</time>
      </trkpt>
      <trkpt lat="44.92274" lon="2.67843">
        <ele>964</ele>
        <time>2023-05-03T16:33:12+02:00</time>
      </trkpt>
      <trkpt lat="44.92296" lon="2.67854">
        <ele>965</ele>
        <time>2023-05-03T16:33:17+02:00</time>
      </trkpt>
      <trkpt lat="44.92326" lon="2.67878">
        <ele>966</ele>
        <time>2023-05-03T16:33:26+02:00</time>
      </trkpt>
      <trkpt lat="44.92345" lon="2.67906">
        <ele>967</ele>
        <time>2023-05-03T16:33:33+02:00</time>
      </trkpt>
      <trkpt lat="44.92359" lon="2.67932">
        <ele>968</ele>
        <time>2023-05-03T16:33:39+02:00</time>
      </trkpt>
      <trkpt lat="44.92374" lon="2.6797">
        <ele>968</ele>
        <time>2023-05-03T16:33:46+02:00</time>
      </trkpt>
      <trkpt lat="44.92389" lon="2.68019">
        <ele>969</ele>
        <time>2023-05-03T16:33:55+02:00</time>
      </trkpt>
      <trkpt lat="44.92396" lon="2.68051">
        <ele>971</ele>
        <time>2023-05-03T16:34:01+02:00</time>
      </trkpt>
      <trkpt lat="44.924" lon="2.68085">
        <ele>973</ele>
        <time>2023-05-03T16:34:12+02:00</time>
      </trkpt>
      <trkpt lat="44.92408" lon="2.6805">
        <ele>975</ele>
        <time>2023-05-03T16:34:19+02:00</time>
      </trkpt>
      <trkpt lat="44.92413" lon="2.68018">
        <ele>975</ele>
        <time>2023-05-03T16:34:25+02:00</time>
      </trkpt>
      <trkpt lat="44.92427" lon="2.67985">
        <ele>976</ele>
        <time>2023-05-03T16:34:32+02:00</time>
      </trkpt>
      <trkpt lat="44.92446" lon="2.67948">
        <ele>974</ele>
        <time>2023-05-03T16:34:41+02:00</time>
      </trkpt>
      <trkpt lat="44.92462" lon="2.67916">
        <ele>977</ele>
        <time>2023-05-03T16:34:50+02:00</time>
      </trkpt>
      <trkpt lat="44.92481" lon="2.67882">
        <ele>979</ele>
        <time>2023-05-03T16:35:00+02:00</time>
      </trkpt>
      <trkpt lat="44.925" lon="2.67865">
        <ele>979</ele>
        <time>2023-05-03T16:35:07+02:00</time>
      </trkpt>
      <trkpt lat="44.92525" lon="2.67869">
        <ele>980</ele>
        <time>2023-05-03T16:35:14+02:00</time>
      </trkpt>
      <trkpt lat="44.9255" lon="2.67882">
        <ele>982</ele>
        <time>2023-05-03T16:35:21+02:00</time>
      </trkpt>
      <trkpt lat="44.92582" lon="2.67894">
        <ele>983</ele>
        <time>2023-05-03T16:35:31+02:00</time>
      </trkpt>
      <trkpt lat="44.92607" lon="2.679">
        <ele>980</ele>
        <time>2023-05-03T16:35:39+02:00</time>
      </trkpt>
      <trkpt lat="44.92631" lon="2.67906">
        <ele>978</ele>
        <time>2023-05-03T16:35:46+02:00</time>
      </trkpt>
      <trkpt lat="44.92656" lon="2.6791">
        <ele>982</ele>
        <time>2023-05-03T16:35:53+02:00</time>
      </trkpt>
      <trkpt lat="44.92688" lon="2.6791">
        <ele>978</ele>
        <time>2023-05-03T16:36:00+02:00</time>
      </trkpt>
      <trkpt lat="44.92714" lon="2.6792">
        <ele>981</ele>
        <time>2023-05-03T16:36:08+02:00</time>
      </trkpt>
      <trkpt lat="44.92706" lon="2.67963">
        <ele>978</ele>
        <time>2023-05-03T16:39:12+02:00</time>
      </trkpt>
      <trkpt lat="44.92715" lon="2.67994">
        <ele>983</ele>
        <time>2023-05-03T16:39:19+02:00</time>
      </trkpt>
      <trkpt lat="44.92728" lon="2.68019">
        <ele>985</ele>
        <time>2023-05-03T16:39:23+02:00</time>
      </trkpt>
      <trkpt lat="44.92761" lon="2.68028">
        <ele>990</ele>
        <time>2023-05-03T16:39:31+02:00</time>
      </trkpt>
      <trkpt lat="44.92786" lon="2.68032">
        <ele>990</ele>
        <time>2023-05-03T16:39:39+02:00</time>
      </trkpt>
      <trkpt lat="44.92813" lon="2.68037">
        <ele>993</ele>
        <time>2023-05-03T16:39:47+02:00</time>
      </trkpt>
      <trkpt lat="44.9284" lon="2.68033">
        <ele>995</ele>
        <time>2023-05-03T16:39:54+02:00</time>
      </trkpt>
      <trkpt lat="44.92864" lon="2.68028">
        <ele>992</ele>
        <time>2023-05-03T16:40:02+02:00</time>
      </trkpt>
      <trkpt lat="44.92888" lon="2.68025">
        <ele>996</ele>
        <time>2023-05-03T16:40:09+02:00</time>
      </trkpt>
      <trkpt lat="44.92915" lon="2.68029">
        <ele>997</ele>
        <time>2023-05-03T16:40:18+02:00</time>
      </trkpt>
      <trkpt lat="44.92938" lon="2.68036">
        <ele>999</ele>
        <time>2023-05-03T16:40:25+02:00</time>
      </trkpt>
      <trkpt lat="44.92973" lon="2.68047">
        <ele>1001</ele>
        <time>2023-05-03T16:40:36+02:00</time>
      </trkpt>
      <trkpt lat="44.92998" lon="2.68052">
        <ele>1000</ele>
        <time>2023-05-03T16:40:44+02:00</time>
      </trkpt>
      <trkpt lat="44.93026" lon="2.68053">
        <ele>1002</ele>
        <time>2023-05-03T16:40:51+02:00</time>
      </trkpt>
      <trkpt lat="44.93055" lon="2.68053">
        <ele>1002</ele>
        <time>2023-05-03T16:40:58+02:00</time>
      </trkpt>
      <trkpt lat="44.93077" lon="2.6805">
        <ele>1002</ele>
        <time>2023-05-03T16:41:03+02:00</time>
      </trkpt>
      <trkpt lat="44.93109" lon="2.68049">
        <ele>1006</ele>
        <time>2023-05-03T16:41:10+02:00</time>
      </trkpt>
      <trkpt lat="44.93141" lon="2.68051">
        <ele>1005</ele>
        <time>2023-05-03T16:41:16+02:00</time>
      </trkpt>
      <trkpt lat="44.93184" lon="2.68058">
        <ele>1011</ele>
        <time>2023-05-03T16:41:26+02:00</time>
      </trkpt>
      <trkpt lat="44.93207" lon="2.68075">
        <ele>1012</ele>
        <time>2023-05-03T16:41:33+02:00</time>
      </trkpt>
      <trkpt lat="44.93238" lon="2.68102">
        <ele>1011</ele>
        <time>2023-05-03T16:41:42+02:00</time>
      </trkpt>
      <trkpt lat="44.9326" lon="2.68123">
        <ele>1008</ele>
        <time>2023-05-03T16:41:50+02:00</time>
      </trkpt>
      <trkpt lat="44.93284" lon="2.68146">
        <ele>1011</ele>
        <time>2023-05-03T16:41:58+02:00</time>
      </trkpt>
      <trkpt lat="44.93307" lon="2.6816">
        <ele>1020</ele>
        <time>2023-05-03T16:42:07+02:00</time>
      </trkpt>
      <trkpt lat="44.9333" lon="2.6817">
        <ele>1023</ele>
        <time>2023-05-03T16:42:18+02:00</time>
      </trkpt>
      <trkpt lat="44.93358" lon="2.68194">
        <ele>1031</ele>
        <time>2023-05-03T16:42:31+02:00</time>
      </trkpt>
      <trkpt lat="44.93382" lon="2.68206">
        <ele>1035</ele>
        <time>2023-05-03T16:42:40+02:00</time>
      </trkpt>
      <trkpt lat="44.93394" lon="2.68175">
        <ele>1033</ele>
        <time>2023-05-03T16:43:45+02:00</time>
      </trkpt>
      <trkpt lat="44.93402" lon="2.68141">
        <ele>1031</ele>
        <time>2023-05-03T16:43:55+02:00</time>
      </trkpt>
      <trkpt lat="44.93396" lon="2.68101">
        <ele>1028</ele>
        <time>2023-05-03T16:44:07+02:00</time>
      </trkpt>
      <trkpt lat="44.93395" lon="2.68059">
        <ele>1029</ele>
        <time>2023-05-03T16:44:18+02:00</time>
      </trkpt>
      <trkpt lat="44.93403" lon="2.68029">
        <ele>1035</ele>
        <time>2023-05-03T16:44:27+02:00</time>
      </trkpt>
      <trkpt lat="44.93429" lon="2.68026">
        <ele>1039</ele>
        <time>2023-05-03T16:44:45+02:00</time>
      </trkpt>
      <trkpt lat="44.93453" lon="2.68033">
        <ele>1038</ele>
        <time>2023-05-03T16:44:55+02:00</time>
      </trkpt>
      <trkpt lat="44.93479" lon="2.68036">
        <ele>1044</ele>
        <time>2023-05-03T16:45:07+02:00</time>
      </trkpt>
      <trkpt lat="44.93502" lon="2.68041">
        <ele>1048</ele>
        <time>2023-05-03T16:45:16+02:00</time>
      </trkpt>
      <trkpt lat="44.9353" lon="2.68045">
        <ele>1049</ele>
        <time>2023-05-03T16:45:28+02:00</time>
      </trkpt>
      <trkpt lat="44.93554" lon="2.6805">
        <ele>1055</ele>
        <time>2023-05-03T16:45:44+02:00</time>
      </trkpt>
      <trkpt lat="44.93579" lon="2.68048">
        <ele>1066</ele>
        <time>2023-05-03T16:45:59+02:00</time>
      </trkpt>
      <trkpt lat="44.936" lon="2.68035">
        <ele>1059</ele>
        <time>2023-05-03T16:46:45+02:00</time>
      </trkpt>
      <trkpt lat="44.93624" lon="2.68023">
        <ele>1062</ele>
        <time>2023-05-03T16:47:04+02:00</time>
      </trkpt>
      <trkpt lat="44.93937" lon="2.67969">
        <ele>1065</ele>
        <time>2023-05-03T16:49:30+02:00</time>
      </trkpt>
      <trkpt lat="44.93961" lon="2.67964">
        <ele>1076</ele>
        <time>2023-05-03T16:49:42+02:00</time>
      </trkpt>
      <trkpt lat="44.93997" lon="2.67958">
        <ele>1076</ele>
        <time>2023-05-03T16:49:50+02:00</time>
      </trkpt>
      <trkpt lat="44.94028" lon="2.67953">
        <ele>1077</ele>
        <time>2023-05-03T16:49:59+02:00</time>
      </trkpt>
      <trkpt lat="44.94059" lon="2.67949">
        <ele>1076</ele>
        <time>2023-05-03T16:50:08+02:00</time>
      </trkpt>
      <trkpt lat="44.94088" lon="2.67948">
        <ele>1077</ele>
        <time>2023-05-03T16:50:18+02:00</time>
      </trkpt>
      <trkpt lat="44.94115" lon="2.67943">
        <ele>1079</ele>
        <time>2023-05-03T16:50:27+02:00</time>
      </trkpt>
      <trkpt lat="44.9414" lon="2.6795">
        <ele>1080</ele>
        <time>2023-05-03T16:50:37+02:00</time>
      </trkpt>
      <trkpt lat="44.94164" lon="2.67954">
        <ele>1078</ele>
        <time>2023-05-03T16:50:44+02:00</time>
      </trkpt>
      <trkpt lat="44.94188" lon="2.67952">
        <ele>1077</ele>
        <time>2023-05-03T16:50:52+02:00</time>
      </trkpt>
      <trkpt lat="44.94216" lon="2.6796">
        <ele>1080</ele>
        <time>2023-05-03T16:51:06+02:00</time>
      </trkpt>
      <trkpt lat="44.94249" lon="2.6796">
        <ele>1081</ele>
        <time>2023-05-03T16:51:15+02:00</time>
      </trkpt>
      <trkpt lat="44.94283" lon="2.67952">
        <ele>1081</ele>
        <time>2023-05-03T16:51:22+02:00</time>
      </trkpt>
      <trkpt lat="44.94314" lon="2.67938">
        <ele>1081</ele>
        <time>2023-05-03T16:51:29+02:00</time>
      </trkpt>
      <trkpt lat="44.94352" lon="2.67932">
        <ele>1083</ele>
        <time>2023-05-03T16:51:37+02:00</time>
      </trkpt>
      <trkpt lat="44.94377" lon="2.67934">
        <ele>1083</ele>
        <time>2023-05-03T16:51:43+02:00</time>
      </trkpt>
      <trkpt lat="44.94408" lon="2.67932">
        <ele>1085</ele>
        <time>2023-05-03T16:51:50+02:00</time>
      </trkpt>
      <trkpt lat="44.94437" lon="2.67924">
        <ele>1092</ele>
        <time>2023-05-03T16:51:57+02:00</time>
      </trkpt>
      <trkpt lat="44.94469" lon="2.67918">
        <ele>1086</ele>
        <time>2023-05-03T16:52:04+02:00</time>
      </trkpt>
      <trkpt lat="44.94495" lon="2.6791">
        <ele>1088</ele>
        <time>2023-05-03T16:52:12+02:00</time>
      </trkpt>
      <trkpt lat="44.94507" lon="2.67883">
        <ele>1090</ele>
        <time>2023-05-03T16:52:19+02:00</time>
      </trkpt>
      <trkpt lat="44.94515" lon="2.67851">
        <ele>1091</ele>
        <time>2023-05-03T16:52:24+02:00</time>
      </trkpt>
      <trkpt lat="44.94542" lon="2.67848">
        <ele>1094</ele>
        <time>2023-05-03T16:52:32+02:00</time>
      </trkpt>
      <trkpt lat="44.94571" lon="2.67852">
        <ele>1092</ele>
        <time>2023-05-03T16:52:39+02:00</time>
      </trkpt>
      <trkpt lat="44.94605" lon="2.67864">
        <ele>1090</ele>
        <time>2023-05-03T16:52:44+02:00</time>
      </trkpt>
      <trkpt lat="44.94647" lon="2.67871">
        <ele>1091</ele>
        <time>2023-05-03T16:52:52+02:00</time>
      </trkpt>
      <trkpt lat="44.94695" lon="2.67881">
        <ele>1095</ele>
        <time>2023-05-03T16:53:02+02:00</time>
      </trkpt>
      <trkpt lat="44.94722" lon="2.67888">
        <ele>1096</ele>
        <time>2023-05-03T16:53:07+02:00</time>
      </trkpt>
      <trkpt lat="44.94744" lon="2.67895">
        <ele>1097</ele>
        <time>2023-05-03T16:53:12+02:00</time>
      </trkpt>
      <trkpt lat="44.94766" lon="2.67904">
        <ele>1098</ele>
        <time>2023-05-03T16:53:17+02:00</time>
      </trkpt>
      <trkpt lat="44.94793" lon="2.67913">
        <ele>1097</ele>
        <time>2023-05-03T16:53:27+02:00</time>
      </trkpt>
      <trkpt lat="44.94819" lon="2.67915">
        <ele>1099</ele>
        <time>2023-05-03T16:53:35+02:00</time>
      </trkpt>
      <trkpt lat="44.94848" lon="2.67923">
        <ele>1095</ele>
        <time>2023-05-03T16:53:40+02:00</time>
      </trkpt>
      <trkpt lat="44.94874" lon="2.67928">
        <ele>1097</ele>
        <time>2023-05-03T16:53:45+02:00</time>
      </trkpt>
      <trkpt lat="44.94906" lon="2.6793">
        <ele>1087</ele>
        <time>2023-05-03T16:53:52+02:00</time>
      </trkpt>
      <trkpt lat="44.94932" lon="2.6793">
        <ele>1093</ele>
        <time>2023-05-03T16:53:57+02:00</time>
      </trkpt>
      <trkpt lat="44.94955" lon="2.67931">
        <ele>1093</ele>
        <time>2023-05-03T16:54:05+02:00</time>
      </trkpt>
      <trkpt lat="44.94986" lon="2.67932">
        <ele>1093</ele>
        <time>2023-05-03T16:54:10+02:00</time>
      </trkpt>
      <trkpt lat="44.95017" lon="2.67937">
        <ele>1093</ele>
        <time>2023-05-03T16:54:18+02:00</time>
      </trkpt>
      <trkpt lat="44.95041" lon="2.67944">
        <ele>1093</ele>
        <time>2023-05-03T16:54:25+02:00</time>
      </trkpt>
      <trkpt lat="44.95068" lon="2.6795">
        <ele>1093</ele>
        <time>2023-05-03T16:54:33+02:00</time>
      </trkpt>
      <trkpt lat="44.95095" lon="2.67967">
        <ele>1093</ele>
        <time>2023-05-03T16:54:38+02:00</time>
      </trkpt>
      <trkpt lat="44.95116" lon="2.67986">
        <ele>1093</ele>
        <time>2023-05-03T16:54:45+02:00</time>
      </trkpt>
      <trkpt lat="44.95138" lon="2.68014">
        <ele>1093</ele>
        <time>2023-05-03T16:54:53+02:00</time>
      </trkpt>
      <trkpt lat="44.95175" lon="2.68068">
        <ele>1093</ele>
        <time>2023-05-03T16:55:02+02:00</time>
      </trkpt>
      <trkpt lat="44.95194" lon="2.68096">
        <ele>1093</ele>
        <time>2023-05-03T16:55:07+02:00</time>
      </trkpt>
      <trkpt lat="44.95215" lon="2.68127">
        <ele>1093</ele>
        <time>2023-05-03T16:55:12+02:00</time>
      </trkpt>
      <trkpt lat="44.95235" lon="2.68159">
        <ele>1093</ele>
        <time>2023-05-03T16:55:17+02:00</time>
      </trkpt>
      <trkpt lat="44.95251" lon="2.68199">
        <ele>1093</ele>
        <time>2023-05-03T16:55:22+02:00</time>
      </trkpt>
      <trkpt lat="44.95263" lon="2.68233">
        <ele>1093</ele>
        <time>2023-05-03T16:55:27+02:00</time>
      </trkpt>
      <trkpt lat="44.95267" lon="2.68267">
        <ele>1093</ele>
        <time>2023-05-03T16:55:32+02:00</time>
      </trkpt>
      <trkpt lat="44.95271" lon="2.68301">
        <ele>1093</ele>
        <time>2023-05-03T16:55:37+02:00</time>
      </trkpt>
      <trkpt lat="44.95244" lon="2.68325">
        <ele>1096</ele>
        <time>2023-05-03T16:55:52+02:00</time>
      </trkpt>
      <trkpt lat="44.95215" lon="2.68317">
        <ele>1096</ele>
        <time>2023-05-03T16:55:58+02:00</time>
      </trkpt>
      <trkpt lat="44.95186" lon="2.68327">
        <ele>1093</ele>
        <time>2023-05-03T16:56:05+02:00</time>
      </trkpt>
      <trkpt lat="44.95165" lon="2.68341">
        <ele>1093</ele>
        <time>2023-05-03T16:56:11+02:00</time>
      </trkpt>
      <trkpt lat="44.95142" lon="2.68366">
        <ele>1093</ele>
        <time>2023-05-03T16:56:18+02:00</time>
      </trkpt>
      <trkpt lat="44.95115" lon="2.68378">
        <ele>1093</ele>
        <time>2023-05-03T16:56:26+02:00</time>
      </trkpt>
    </trkseg>
  </trk>
</gpx>